createdAt,value
2023-04-10T00:00:03.397Z,1.2
2023-04-10T00:02:02.767Z,1.0
2023-04-10T00:04:03.028Z,1.1
2023-04-10T00:06:03.383Z,1.0
2023-04-10T00:08:03.197Z,1.0
2023-04-10T00:10:02.628Z,1.1
2023-04-10T00:12:03.552Z,1.2
2023-04-10T00:14:03.333Z,1.2
2023-04-10T00:16:02.827Z,1.1
2023-04-10T00:18:02.745Z,1.0
2023-04-10T00:20:04.560Z,1.1
2023-04-10T00:22:02.683Z,0.9
2023-04-10T00:24:03.044Z,0.9
2023-04-10T00:26:02.649Z,1.0
2023-04-10T00:28:02.522Z,0.8
2023-04-10T00:30:03.249Z,1.0
2023-04-10T00:32:02.763Z,0.9
2023-04-10T00:34:02.717Z,0.9
2023-04-10T00:36:02.803Z,1.0
2023-04-10T00:38:03.286Z,1.1
2023-04-10T00:40:03.780Z,0.9
2023-04-10T00:42:03.549Z,0.9
2023-04-10T00:44:03.184Z,0.9
2023-04-10T00:46:03.323Z,0.9
2023-04-10T00:48:03.974Z,0.9
2023-04-10T00:50:03.117Z,0.9
2023-04-10T00:52:02.944Z,1.0
2023-04-10T00:54:03.598Z,0.8
2023-04-10T00:56:02.642Z,0.8
2023-04-10T00:58:03.299Z,1.0
2023-04-10T01:00:04.474Z,0.9
2023-04-10T01:02:03.029Z,1.0
2023-04-10T01:04:03.320Z,1.0
2023-04-10T01:06:09.440Z,1.1
2023-04-10T01:08:15.300Z,0.9
2023-04-10T01:10:13.077Z,1.1
2023-04-10T01:12:15.493Z,1.2
2023-04-10T01:14:12.186Z,1.2
2023-04-10T01:16:09.330Z,1.2
2023-04-10T01:18:11.316Z,1.1
2023-04-10T01:20:07.754Z,1.1
2023-04-10T01:22:09.955Z,1.3
2023-04-10T01:24:14.439Z,1.2
2023-04-10T01:26:05.528Z,1.3
2023-04-10T01:28:15.728Z,1.3
2023-04-10T01:30:04.551Z,1.4
2023-04-10T01:32:07.219Z,1.4
2023-04-10T01:34:08.192Z,1.5
2023-04-10T01:36:07.392Z,1.7
2023-04-10T01:38:06.737Z,1.1
2023-04-10T01:40:05.924Z,1.1
2023-04-10T01:42:05.886Z,1.4
2023-04-10T01:44:04.599Z,1.2
2023-04-10T01:46:03.837Z,1.2
2023-04-10T01:48:02.683Z,1.2
2023-04-10T01:50:04.162Z,1.3
2023-04-10T01:52:05.464Z,1.2
2023-04-10T01:54:07.000Z,1.4
2023-04-10T01:56:03.165Z,1.2
2023-04-10T01:58:04.236Z,1.1
2023-04-10T02:00:03.641Z,1.2
2023-04-10T02:02:04.291Z,1.3
2023-04-10T02:04:03.433Z,1.1
2023-04-10T02:06:15.521Z,1.1
2023-04-10T02:08:10.619Z,1.1
2023-04-10T02:10:09.466Z,1.0
2023-04-10T02:12:06.539Z,1.1
2023-04-10T02:14:07.919Z,1.0
2023-04-10T02:16:06.410Z,1.1
2023-04-10T02:18:04.329Z,1.1
2023-04-10T02:20:03.620Z,0.9
2023-04-10T02:22:06.182Z,1.0
2023-04-10T02:24:03.538Z,1.0
2023-04-10T02:26:08.278Z,0.9
2023-04-10T02:28:05.522Z,1.0
2023-04-10T02:30:04.818Z,1.0
2023-04-10T02:32:02.551Z,0.9
2023-04-10T02:34:02.546Z,1.1
2023-04-10T02:36:02.687Z,1.2
2023-04-10T02:38:02.524Z,1.1
2023-04-10T02:40:02.963Z,1.0
2023-04-10T02:42:02.548Z,1.2
2023-04-10T02:44:02.572Z,1.0
2023-04-10T02:46:02.584Z,1.2
2023-04-10T02:48:02.855Z,1.1
2023-04-10T02:50:03.345Z,1.3
2023-04-10T02:52:03.363Z,1.2
2023-04-10T02:54:03.237Z,1.3
2023-04-10T02:56:03.074Z,1.2
2023-04-10T02:58:02.582Z,1.6
2023-04-10T03:00:04.126Z,1.3
2023-04-10T03:02:03.547Z,1.5
2023-04-10T03:04:03.750Z,1.6
2023-04-10T03:06:02.739Z,1.8
2023-04-10T03:08:02.560Z,1.6
2023-04-10T03:10:02.642Z,1.8
2023-04-10T03:12:02.565Z,1.6
2023-04-10T03:14:03.198Z,1.5
2023-04-10T03:16:02.869Z,1.7
2023-04-10T03:18:02.984Z,1.4
2023-04-10T03:20:02.615Z,1.6
2023-04-10T03:22:03.751Z,1.6
2023-04-10T03:24:02.568Z,1.5
2023-04-10T03:26:04.128Z,1.6
2023-04-10T03:28:02.770Z,1.4
2023-04-10T03:30:03.639Z,1.4
2023-04-10T03:32:02.750Z,1.4
2023-04-10T03:34:02.611Z,1.3
2023-04-10T03:36:03.198Z,1.6
2023-04-10T03:38:02.820Z,1.5
2023-04-10T03:40:05.386Z,1.6
2023-04-10T03:42:02.728Z,1.5
2023-04-10T03:44:03.317Z,1.5
2023-04-10T03:46:02.652Z,1.2
2023-04-10T03:48:03.423Z,1.2
2023-04-10T03:50:02.781Z,1.0
2023-04-10T03:52:02.675Z,1.2
2023-04-10T03:54:03.135Z,1.1
2023-04-10T03:56:02.665Z,1.1
2023-04-10T03:58:02.507Z,1.1
2023-04-10T04:00:03.639Z,0.9
2023-04-10T04:02:03.283Z,1.0
2023-04-10T04:04:02.820Z,1.0
2023-04-10T04:06:02.871Z,0.9
2023-04-10T04:08:04.281Z,1.2
2023-04-10T04:10:03.303Z,1.1
2023-04-10T04:12:02.680Z,1.0
2023-04-10T04:14:02.526Z,0.9
2023-04-10T04:16:02.719Z,1.0
2023-04-10T04:18:02.765Z,1.1
2023-04-10T04:20:03.052Z,0.9
2023-04-10T04:22:03.467Z,0.9
2023-04-10T04:24:02.653Z,0.8
2023-04-10T04:26:02.628Z,0.9
2023-04-10T04:28:02.723Z,1.0
2023-04-10T04:30:02.893Z,1.1
2023-04-10T04:32:03.123Z,0.9
2023-04-10T04:34:03.279Z,1.0
2023-04-10T04:36:02.604Z,1.0
2023-04-10T04:38:02.626Z,1.1
2023-04-10T04:40:03.177Z,0.9
2023-04-10T04:42:02.828Z,1.1
2023-04-10T04:44:02.593Z,1.1
2023-04-10T04:46:02.758Z,0.8
2023-04-10T04:48:03.203Z,0.8
2023-04-10T04:50:03.546Z,0.9
2023-04-10T04:52:02.730Z,1.0
2023-04-10T04:54:03.201Z,1.0
2023-04-10T04:56:02.623Z,1.0
2023-04-10T04:58:02.738Z,1.2
2023-04-10T05:00:02.776Z,1.2
2023-04-10T05:02:02.812Z,1.2
2023-04-10T05:04:03.303Z,1.3
2023-04-10T05:06:02.557Z,1.6
2023-04-10T05:08:02.849Z,1.6
2023-04-10T05:10:02.702Z,1.6
2023-04-10T05:12:03.495Z,1.3
2023-04-10T05:14:02.717Z,1.2
2023-04-10T05:16:03.331Z,1.3
2023-04-10T05:18:02.768Z,1.2
2023-04-10T05:20:03.721Z,1.3
2023-04-10T05:22:03.072Z,1.1
2023-04-10T05:24:02.540Z,1.2
2023-04-10T05:26:02.762Z,1.5
2023-04-10T05:28:03.730Z,1.1
2023-04-10T05:30:03.651Z,1.1
2023-04-10T05:32:02.672Z,1.2
2023-04-10T05:34:02.495Z,1.6
2023-04-10T05:36:02.758Z,1.1
2023-04-10T05:38:02.881Z,1.2
2023-04-10T05:40:03.046Z,1.2
2023-04-10T05:42:03.370Z,1.4
2023-04-10T05:44:03.294Z,1.4
2023-04-10T05:46:03.151Z,1.2
2023-04-10T05:48:02.518Z,1.4
2023-04-10T05:50:03.398Z,1.4
2023-04-10T05:52:02.736Z,1.4
2023-04-10T05:54:02.897Z,1.2
2023-04-10T05:56:02.817Z,1.3
2023-04-10T05:58:02.487Z,1.3
2023-04-10T06:00:03.603Z,1.3
2023-04-10T06:02:02.929Z,1.3
2023-04-10T06:04:03.358Z,1.2
2023-04-10T06:06:03.121Z,1.1
2023-04-10T06:08:02.643Z,1.3
2023-04-10T06:10:02.608Z,1.2
2023-04-10T06:12:02.506Z,1.5
2023-04-10T06:14:02.746Z,1.2
2023-04-10T06:16:02.613Z,1.3
2023-04-10T06:18:03.577Z,1.2
2023-04-10T06:20:04.270Z,1.4
2023-04-10T06:22:02.723Z,1.2
2023-04-10T06:24:02.576Z,1.3
2023-04-10T06:26:03.522Z,1.6
2023-04-10T06:28:02.520Z,1.5
2023-04-10T06:30:02.979Z,1.4
2023-04-10T06:32:03.497Z,1.7
2023-04-10T06:34:02.534Z,1.8
2023-04-10T06:36:03.641Z,1.4
2023-04-10T06:38:02.856Z,1.3
2023-04-10T06:40:04.800Z,1.3
2023-04-10T06:42:03.012Z,1.5
2023-04-10T06:44:03.610Z,1.2
2023-04-10T06:46:04.619Z,1.3
2023-04-10T06:48:03.221Z,1.6
2023-04-10T06:50:03.462Z,1.5
2023-04-10T06:52:03.079Z,1.3
2023-04-10T06:54:02.718Z,1.3
2023-04-10T06:56:03.788Z,1.4
2023-04-10T06:58:02.519Z,1.3
2023-04-10T07:00:03.201Z,1.5
2023-04-10T07:02:03.795Z,1.5
2023-04-10T07:04:03.178Z,1.3
2023-04-10T07:06:02.795Z,1.2
2023-04-10T07:08:03.231Z,1.3
2023-04-10T07:10:02.744Z,1.1
2023-04-10T07:12:02.803Z,1.2
2023-04-10T07:14:02.760Z,1.1
2023-04-10T07:16:02.532Z,1.1
2023-04-10T07:18:02.855Z,1.2
2023-04-10T07:20:02.692Z,1.2
2023-04-10T07:22:03.320Z,1.5
2023-04-10T07:24:02.909Z,1.5
2023-04-10T07:26:02.653Z,1.6
2023-04-10T07:28:02.587Z,1.3
2023-04-10T07:30:03.020Z,1.3
2023-04-10T07:32:02.746Z,1.4
2023-04-10T07:34:03.374Z,1.3
2023-04-10T07:36:05.301Z,1.3
2023-04-10T07:38:02.660Z,1.6
2023-04-10T07:40:02.973Z,1.4
2023-04-10T07:42:02.826Z,1.5
2023-04-10T07:44:02.578Z,1.3
2023-04-10T07:46:02.936Z,1.2
2023-04-10T07:48:02.988Z,1.6
2023-04-10T07:50:03.312Z,1.5
2023-04-10T07:52:02.501Z,1.7
2023-04-10T07:54:03.574Z,1.4
2023-04-10T07:56:03.825Z,1.4
2023-04-10T07:58:03.143Z,1.4
2023-04-10T08:00:03.859Z,1.5
2023-04-10T08:02:02.609Z,1.4
2023-04-10T08:04:05.572Z,1.4
2023-04-10T08:06:02.724Z,1.7
2023-04-10T08:08:02.752Z,1.4
2023-04-10T08:10:03.458Z,1.7
2023-04-10T08:12:03.818Z,1.4
2023-04-10T08:14:03.428Z,1.2
2023-04-10T08:16:03.615Z,1.4
2023-04-10T08:18:02.568Z,1.3
2023-04-10T08:20:04.309Z,1.4
2023-04-10T08:22:02.616Z,1.2
2023-04-10T08:24:04.769Z,1.2
2023-04-10T08:26:02.539Z,1.2
2023-04-10T08:28:02.484Z,1.4
2023-04-10T08:30:02.653Z,1.2
2023-04-10T08:32:02.744Z,1.5
2023-04-10T08:34:03.922Z,1.4
2023-04-10T08:36:03.010Z,1.4
2023-04-10T08:38:13.433Z,1.4
2023-04-10T08:40:03.045Z,1.5
2023-04-10T08:42:03.169Z,1.3
2023-04-10T08:44:02.549Z,1.5
2023-04-10T08:46:02.630Z,1.5
2023-04-10T08:48:05.849Z,1.6
2023-04-10T08:50:10.883Z,1.4
2023-04-10T08:52:07.600Z,1.3
2023-04-10T08:54:07.670Z,1.3
2023-04-10T08:56:05.027Z,1.2
2023-04-10T08:58:03.818Z,1.3
2023-04-10T09:00:16.004Z,1.5
2023-04-10T09:02:03.705Z,1.3
2023-04-10T09:04:02.683Z,1.5
2023-04-10T09:06:04.174Z,1.5
2023-04-10T09:08:02.708Z,1.5
2023-04-10T09:10:02.808Z,1.5
2023-04-10T09:12:04.014Z,1.5
2023-04-10T09:14:02.572Z,1.3
2023-04-10T09:16:04.414Z,1.3
2023-04-10T09:18:04.339Z,1.6
2023-04-10T09:20:02.625Z,1.9
2023-04-10T09:22:02.577Z,1.5
2023-04-10T09:24:04.086Z,1.6
2023-04-10T09:26:15.505Z,1.8
2023-04-10T09:28:05.574Z,2.0
2023-04-10T09:30:04.011Z,1.6
2023-04-10T09:32:02.548Z,1.5
2023-04-10T09:34:12.587Z,1.7
2023-04-10T09:36:03.575Z,1.7
2023-04-10T09:38:12.692Z,1.6
2023-04-10T09:40:04.259Z,1.7
2023-04-10T09:42:02.860Z,1.9
2023-04-10T09:44:11.448Z,1.5
2023-04-10T09:46:02.553Z,1.6
2023-04-10T09:48:04.171Z,1.5
2023-04-10T09:50:02.744Z,1.9
2023-04-10T09:52:18.338Z,2.1
2023-04-10T09:54:03.703Z,1.5
2023-04-10T09:56:04.809Z,1.6
2023-04-10T09:58:03.965Z,1.9
2023-04-10T10:00:06.606Z,1.7
2023-04-10T10:02:03.027Z,1.5
2023-04-10T10:04:04.445Z,1.7
2023-04-10T10:06:02.862Z,1.8
2023-04-10T10:08:02.624Z,1.7
2023-04-10T10:10:06.800Z,2.4
2023-04-10T10:12:04.547Z,2.4
2023-04-10T10:14:06.682Z,2.0
2023-04-10T10:16:08.900Z,1.9
2023-04-10T10:18:07.766Z,2.0
2023-04-10T10:20:08.811Z,2.1
2023-04-10T10:22:03.730Z,2.1
2023-04-10T10:24:07.312Z,2.1
2023-04-10T10:26:06.245Z,2.1
2023-04-10T10:28:04.897Z,2.1
2023-04-10T10:30:12.127Z,2.0
2023-04-10T10:32:06.674Z,2.0
2023-04-10T10:34:06.445Z,1.8
2023-04-10T10:36:04.231Z,2.2
2023-04-10T10:38:04.474Z,2.4
2023-04-10T10:40:12.159Z,2.0
2023-04-10T10:42:13.412Z,1.8
2023-04-10T10:44:11.131Z,1.8
2023-04-10T10:46:07.427Z,1.6
2023-04-10T10:48:02.761Z,2.2
2023-04-10T10:50:04.408Z,1.6
2023-04-10T10:52:02.552Z,1.9
2023-04-10T10:54:03.335Z,2.0
2023-04-10T10:56:22.017Z,1.5
2023-04-10T10:58:04.799Z,1.5
2023-04-10T11:00:02.805Z,1.4
2023-04-10T11:02:15.057Z,1.3
2023-04-10T11:04:21.741Z,1.3
2023-04-10T11:06:06.494Z,1.3
2023-04-10T11:08:10.292Z,1.3
2023-04-10T11:10:02.533Z,1.2
2023-04-10T11:12:02.745Z,1.1
2023-04-10T11:14:17.272Z,1.2
2023-04-10T11:16:05.325Z,1.4
2023-04-10T11:18:02.526Z,1.1
2023-04-10T11:20:03.641Z,1.2
2023-04-10T11:22:06.818Z,1.1
2023-04-10T11:24:04.651Z,1.3
2023-04-10T11:26:03.327Z,1.3
2023-04-10T11:28:02.842Z,1.1
2023-04-10T11:30:03.716Z,1.1
2023-04-10T11:32:04.021Z,1.2
2023-04-10T11:34:05.447Z,1.0
2023-04-10T11:36:04.441Z,1.1
2023-04-10T11:38:13.442Z,1.2
2023-04-10T11:40:05.785Z,1.1
2023-04-10T11:42:04.208Z,1.2
2023-04-10T11:44:05.131Z,1.3
2023-04-10T11:46:05.049Z,1.5
2023-04-10T11:48:02.948Z,1.1
2023-04-10T11:50:03.045Z,1.2
2023-04-10T11:52:03.114Z,1.3
2023-04-10T11:54:09.450Z,0.9
2023-04-10T11:56:02.618Z,1.3
2023-04-10T11:58:02.614Z,1.4
2023-04-10T12:00:03.821Z,1.1
2023-04-10T12:02:06.695Z,1.1
2023-04-10T12:04:03.991Z,1.3
2023-04-10T12:06:03.611Z,1.2
2023-04-10T12:08:02.681Z,1.1
2023-04-10T12:10:02.532Z,1.1
2023-04-10T12:12:05.528Z,1.1
2023-04-10T12:14:03.232Z,1.1
2023-04-10T12:16:05.434Z,1.1
2023-04-10T12:18:03.828Z,1.2
2023-04-10T12:20:04.021Z,1.0
2023-04-10T12:22:03.390Z,1.2
2023-04-10T12:24:03.567Z,1.0
2023-04-10T12:26:12.388Z,1.1
2023-04-10T12:28:02.556Z,1.0
2023-04-10T12:30:08.387Z,1.2
2023-04-10T12:32:08.124Z,0.9
2023-04-10T12:34:05.099Z,1.1
2023-04-10T12:36:02.752Z,1.0
2023-04-10T12:38:02.551Z,1.1
2023-04-10T12:40:06.443Z,0.9
2023-04-10T12:42:13.043Z,1.0
2023-04-10T12:44:12.121Z,1.1
2023-04-10T12:46:04.836Z,1.2
2023-04-10T12:48:02.710Z,1.4
2023-04-10T12:50:04.412Z,1.1
2023-04-10T12:52:02.571Z,1.0
2023-04-10T12:54:02.586Z,1.3
2023-04-10T12:56:05.856Z,1.0
2023-04-10T12:58:16.712Z,1.1
2023-04-10T13:00:03.121Z,1.0
2023-04-10T13:02:02.704Z,1.1
2023-04-10T13:04:02.623Z,1.2
2023-04-10T13:06:02.551Z,1.3
2023-04-10T13:08:02.794Z,1.2
2023-04-10T13:10:04.290Z,1.1
2023-04-10T13:12:06.065Z,1.2
2023-04-10T13:14:02.696Z,1.1
2023-04-10T13:16:02.649Z,1.1
2023-04-10T13:18:05.224Z,1.1
2023-04-10T13:20:04.125Z,1.1
2023-04-10T13:22:04.257Z,1.0
2023-04-10T13:24:03.196Z,1.8
2023-04-10T13:26:02.521Z,1.5
2023-04-10T13:28:09.358Z,1.4
2023-04-10T13:30:02.599Z,1.4
2023-04-10T13:32:04.808Z,1.1
2023-04-10T13:34:02.817Z,1.1
2023-04-10T13:36:02.696Z,1.1
2023-04-10T13:38:03.606Z,1.1
2023-04-10T13:40:02.576Z,1.0
2023-04-10T13:42:02.494Z,1.1
2023-04-10T13:44:03.283Z,1.5
2023-04-10T13:46:02.702Z,1.1
2023-04-10T13:48:03.270Z,1.1
2023-04-10T13:50:02.553Z,1.2
2023-04-10T13:52:02.757Z,1.2
2023-04-10T13:54:04.595Z,1.5
2023-04-10T13:56:03.275Z,1.4
2023-04-10T13:58:02.740Z,1.3
2023-04-10T14:00:04.120Z,1.0
2023-04-10T14:02:02.787Z,1.1
2023-04-10T14:04:03.062Z,1.0
2023-04-10T14:06:02.654Z,1.3
2023-04-10T14:08:02.611Z,1.3
2023-04-10T14:10:03.910Z,1.2
2023-04-10T14:12:02.655Z,1.2
2023-04-10T14:14:02.567Z,1.5
2023-04-10T14:16:03.786Z,1.5
2023-04-10T14:18:02.730Z,1.6
2023-04-10T14:20:02.652Z,1.4
2023-04-10T14:22:02.703Z,1.3
2023-04-10T14:24:03.209Z,1.5
2023-04-10T14:26:04.715Z,1.3
2023-04-10T14:28:02.737Z,1.4
2023-04-10T14:30:02.661Z,1.5
2023-04-10T14:32:02.757Z,1.0
2023-04-10T14:34:03.303Z,1.1
2023-04-10T14:36:02.546Z,1.3
2023-04-10T14:38:03.211Z,1.2
2023-04-10T14:40:04.420Z,1.1
2023-04-10T14:42:02.592Z,0.9
2023-04-10T14:44:03.315Z,1.2
2023-04-10T14:46:02.869Z,1.2
2023-04-10T14:48:02.678Z,1.2
2023-04-10T14:50:02.833Z,1.2
2023-04-10T14:52:02.769Z,1.5
2023-04-10T14:54:03.870Z,1.2
2023-04-10T14:56:09.432Z,1.0
2023-04-10T14:58:03.495Z,1.0
2023-04-10T15:00:03.645Z,1.2
2023-04-10T15:02:02.650Z,0.9
2023-04-10T15:04:03.463Z,1.2
2023-04-10T15:06:03.409Z,0.9
2023-04-10T15:08:02.611Z,1.0
2023-04-10T15:10:03.481Z,1.0
2023-04-10T15:12:02.834Z,1.1
2023-04-10T15:14:02.653Z,1.1
2023-04-10T15:16:02.746Z,1.0
2023-04-10T15:18:02.543Z,1.1
2023-04-10T15:20:04.452Z,1.4
2023-04-10T15:22:03.501Z,1.8
2023-04-10T15:24:02.480Z,1.2
2023-04-10T15:26:03.000Z,1.5
2023-04-10T15:28:02.765Z,1.6
2023-04-10T15:30:04.478Z,1.5
2023-04-10T15:32:03.120Z,1.7
2023-04-10T15:34:02.870Z,1.4
2023-04-10T15:36:03.002Z,1.2
2023-04-10T15:38:02.783Z,1.4
2023-04-10T15:40:04.389Z,1.2
2023-04-10T15:42:04.501Z,1.3
2023-04-10T15:44:03.273Z,1.2
2023-04-10T15:46:03.455Z,1.1
2023-04-10T15:48:03.852Z,1.1
2023-04-10T15:50:03.258Z,1.1
2023-04-10T15:52:02.710Z,1.0
2023-04-10T15:54:04.258Z,0.9
2023-04-10T15:56:04.847Z,1.2
2023-04-10T15:58:02.847Z,1.1
2023-04-10T16:00:03.928Z,1.2
2023-04-10T16:02:02.824Z,1.5
2023-04-10T16:04:02.850Z,1.4
2023-04-10T16:06:02.611Z,1.3
2023-04-10T16:08:03.828Z,1.4
2023-04-10T16:10:02.723Z,1.5
2023-04-10T16:12:02.647Z,1.6
2023-04-10T16:14:02.561Z,1.3
2023-04-10T16:16:03.976Z,1.2
2023-04-10T16:18:03.273Z,1.3
2023-04-10T16:20:06.269Z,1.3
2023-04-10T16:22:03.355Z,1.2
2023-04-10T16:24:02.722Z,1.1
2023-04-10T16:26:02.614Z,1.1
2023-04-10T16:28:07.170Z,1.1
2023-04-10T16:30:05.241Z,1.0
2023-04-10T16:32:03.460Z,1.1
2023-04-10T16:34:02.906Z,1.4
2023-04-10T16:36:04.165Z,1.2
2023-04-10T16:38:02.698Z,1.2
2023-04-10T16:40:02.770Z,1.1
2023-04-10T16:42:02.997Z,1.4
2023-04-10T16:44:02.920Z,1.1
2023-04-10T16:46:02.793Z,1.2
2023-04-10T16:48:03.470Z,1.1
2023-04-10T16:50:03.326Z,1.2
2023-04-10T16:52:03.347Z,1.2
2023-04-10T16:54:03.163Z,1.1
2023-04-10T16:56:04.943Z,1.2
2023-04-10T16:58:02.716Z,1.3
2023-04-10T17:00:03.627Z,1.1
2023-04-10T17:02:02.607Z,1.2
2023-04-10T17:04:02.832Z,1.1
2023-04-10T17:06:02.494Z,1.2
2023-04-10T17:08:04.873Z,1.3
2023-04-10T17:10:03.283Z,1.4
2023-04-10T17:12:03.783Z,1.3
2023-04-10T17:14:03.397Z,1.2
2023-04-10T17:16:03.577Z,1.3
2023-04-10T17:18:03.160Z,1.2
2023-04-10T17:20:03.875Z,1.1
2023-04-10T17:22:02.914Z,1.3
2023-04-10T17:24:03.325Z,1.2
2023-04-10T17:26:05.189Z,1.3
2023-04-10T17:28:03.034Z,1.4
2023-04-10T17:30:03.334Z,1.2
2023-04-10T17:32:02.896Z,1.1
2023-04-10T17:34:03.658Z,1.0
2023-04-10T17:36:03.944Z,1.1
2023-04-10T17:38:02.797Z,1.0
2023-04-10T17:40:02.741Z,1.3
2023-04-10T17:42:02.495Z,1.3
2023-04-10T17:44:04.927Z,1.1
2023-04-10T17:46:03.328Z,1.2
2023-04-10T17:48:02.564Z,1.1
2023-04-10T17:50:03.031Z,1.2
2023-04-10T17:52:03.280Z,1.2
2023-04-10T17:54:02.767Z,1.1
2023-04-10T17:56:03.580Z,1.2
2023-04-10T17:58:02.714Z,1.1
2023-04-10T18:00:08.065Z,1.1
2023-04-10T18:02:02.605Z,1.2
2023-04-10T18:04:04.198Z,1.5
2023-04-10T18:06:02.547Z,1.8
2023-04-10T18:08:03.350Z,2.1
2023-04-10T18:10:02.719Z,2.2
2023-04-10T18:12:02.651Z,1.6
2023-04-10T18:14:02.559Z,1.2
2023-04-10T18:16:03.392Z,1.3
2023-04-10T18:18:02.603Z,1.1
2023-04-10T18:20:02.786Z,1.1
2023-04-10T18:22:02.729Z,0.9
2023-04-10T18:24:04.240Z,1.1
2023-04-10T18:26:03.689Z,0.9
2023-04-10T18:30:03.569Z,0.9
2023-04-10T18:32:02.564Z,1.0
2023-04-10T18:34:08.274Z,1.0
2023-04-10T18:36:02.906Z,1.1
2023-04-10T18:38:02.794Z,1.1
2023-04-10T18:40:09.848Z,1.2
2023-04-10T18:42:02.722Z,1.2
2023-04-10T18:44:05.414Z,1.3
2023-04-10T18:46:02.977Z,3.2
2023-04-10T18:48:03.534Z,1.3
2023-04-10T18:50:02.571Z,1.2
2023-04-10T18:52:02.928Z,1.1
2023-04-10T18:54:02.597Z,1.2
2023-04-10T18:56:03.115Z,1.4
2023-04-10T18:58:03.277Z,1.2
2023-04-10T19:00:03.967Z,1.3
2023-04-10T19:02:03.000Z,1.3
2023-04-10T19:04:03.027Z,1.2
2023-04-10T19:06:02.508Z,1.2
2023-04-10T19:08:04.780Z,1.4
2023-04-10T19:10:02.717Z,1.4
2023-04-10T19:12:03.325Z,1.4
2023-04-10T19:14:03.578Z,1.3
2023-04-10T19:16:04.673Z,1.0
2023-04-10T19:18:02.599Z,1.1
2023-04-10T19:20:02.705Z,1.0
2023-04-10T19:22:02.763Z,1.1
2023-04-10T19:24:02.574Z,1.3
2023-04-10T19:26:03.044Z,1.2
2023-04-10T19:28:03.904Z,1.2
2023-04-10T19:30:03.368Z,1.3
2023-04-10T19:32:03.800Z,1.1
2023-04-10T19:34:08.396Z,1.2
2023-04-10T19:36:02.624Z,1.3
2023-04-10T19:38:02.899Z,1.4
2023-04-10T19:40:02.713Z,1.1
2023-04-10T19:42:02.812Z,1.2
2023-04-10T19:44:02.691Z,1.0
2023-04-10T19:46:02.823Z,1.2
2023-04-10T19:48:02.833Z,1.3
2023-04-10T19:50:02.775Z,1.1
2023-04-10T19:52:02.865Z,1.1
2023-04-10T19:54:02.771Z,1.2
2023-04-10T19:56:02.607Z,1.2
2023-04-10T19:58:04.024Z,1.0
2023-04-10T20:00:02.636Z,1.1
2023-04-10T20:02:02.927Z,1.2
2023-04-10T20:04:02.707Z,1.2
2023-04-10T20:06:03.465Z,1.1
2023-04-10T20:08:03.139Z,1.4
2023-04-10T20:10:04.380Z,1.2
2023-04-10T20:12:02.827Z,1.1
2023-04-10T20:14:03.456Z,1.2
2023-04-10T20:16:02.992Z,1.1
2023-04-10T20:18:02.516Z,1.2
2023-04-10T20:20:03.082Z,1.3
2023-04-10T20:22:03.583Z,1.3
2023-04-10T20:24:02.555Z,1.2
2023-04-10T20:26:02.782Z,1.6
2023-04-10T20:28:02.957Z,1.3
2023-04-10T20:30:02.595Z,1.2
2023-04-10T20:32:02.735Z,1.4
2023-04-10T20:34:03.274Z,1.3
2023-04-10T20:36:03.580Z,1.5
2023-04-10T20:38:02.617Z,5.7
2023-04-10T20:40:03.122Z,5.7
2023-04-10T20:42:02.503Z,5.0
2023-04-10T20:44:03.150Z,5.9
2023-04-10T20:46:04.661Z,5.1
2023-04-10T20:48:03.221Z,3.8
2023-04-10T20:50:02.527Z,1.6
2023-04-10T20:52:03.713Z,1.1
2023-04-10T20:54:03.908Z,1.3
2023-04-10T20:56:05.553Z,1.4
2023-04-10T20:58:03.587Z,1.9
2023-04-10T21:00:02.749Z,1.9
2023-04-10T21:02:02.919Z,1.7
2023-04-10T21:04:02.839Z,1.7
2023-04-10T21:06:03.880Z,1.8
2023-04-10T21:08:02.598Z,1.5
2023-04-10T21:10:03.240Z,1.1
2023-04-10T21:12:03.010Z,1.4
2023-04-10T21:14:03.091Z,1.5
2023-04-10T21:16:02.810Z,1.4
2023-04-10T21:18:02.645Z,1.3
2023-04-10T21:20:03.763Z,1.2
2023-04-10T21:22:03.360Z,1.1
2023-04-10T21:24:03.291Z,1.4
2023-04-10T21:26:02.952Z,1.4
2023-04-10T21:28:02.786Z,1.2
2023-04-10T21:30:02.594Z,1.5
2023-04-10T21:32:02.926Z,1.7
2023-04-10T21:34:03.096Z,1.5
2023-04-10T21:36:04.401Z,1.2
2023-04-10T21:38:02.828Z,1.1
2023-04-10T21:40:02.910Z,1.3
2023-04-10T21:42:02.562Z,1.0
2023-04-10T21:44:02.938Z,0.9
2023-04-10T21:46:03.320Z,0.9
2023-04-10T21:48:03.219Z,1.1
2023-04-10T21:50:02.655Z,0.9
2023-04-10T21:52:03.790Z,1.2
2023-04-10T21:54:02.576Z,1.1
2023-04-10T21:56:02.557Z,1.0
2023-04-10T21:58:03.547Z,1.0
2023-04-10T22:00:02.860Z,1.2
2023-04-10T22:02:02.666Z,1.0
2023-04-10T22:04:03.489Z,1.2
2023-04-10T22:06:03.280Z,0.9
2023-04-10T22:08:02.581Z,1.0
2023-04-10T22:10:03.571Z,1.0
2023-04-10T22:12:02.559Z,1.0
2023-04-10T22:14:16.032Z,1.0
2023-04-10T22:16:02.932Z,1.1
2023-04-10T22:18:03.196Z,1.2
2023-04-10T22:20:02.697Z,1.0
2023-04-10T22:22:02.852Z,1.1
2023-04-10T22:24:02.511Z,1.1
2023-04-10T22:26:02.744Z,1.0
2023-04-10T22:28:03.674Z,1.0
2023-04-10T22:30:04.176Z,1.0
2023-04-10T22:32:02.561Z,1.0
2023-04-10T22:34:03.697Z,1.1
2023-04-10T22:36:02.584Z,1.0
2023-04-10T22:38:03.202Z,1.0
2023-04-10T22:40:04.791Z,1.1
2023-04-10T22:42:02.541Z,1.1
2023-04-10T22:44:03.358Z,1.1
2023-04-10T22:46:02.602Z,1.2
2023-04-10T22:48:02.587Z,1.0
2023-04-10T22:50:02.792Z,1.1
2023-04-10T22:52:02.909Z,1.1
2023-04-10T22:54:03.216Z,1.1
2023-04-10T22:56:04.406Z,1.1
2023-04-10T22:58:02.524Z,0.9
2023-04-10T23:00:03.850Z,1.0
2023-04-10T23:02:02.648Z,1.2
2023-04-10T23:04:02.948Z,1.1
2023-04-10T23:06:02.717Z,1.2
2023-04-10T23:08:02.783Z,1.3
2023-04-10T23:10:02.720Z,1.3
2023-04-10T23:12:02.684Z,1.2
2023-04-10T23:14:02.649Z,1.3
2023-04-10T23:16:02.900Z,1.4
2023-04-10T23:18:02.696Z,1.4
2023-04-10T23:20:03.524Z,1.4
2023-04-10T23:22:02.506Z,1.6
2023-04-10T23:24:03.160Z,1.8
2023-04-10T23:26:03.512Z,2.1
2023-04-10T23:28:04.067Z,1.9
2023-04-10T23:30:03.550Z,2.0
2023-04-10T23:32:03.983Z,1.8
2023-04-10T23:34:03.727Z,1.9
2023-04-10T23:36:03.430Z,1.9
2023-04-10T23:38:02.748Z,2.0
2023-04-10T23:40:03.546Z,2.4
2023-04-10T23:42:02.744Z,2.6
2023-04-10T23:44:02.873Z,1.9
2023-04-10T23:46:03.100Z,1.7
2023-04-10T23:48:02.545Z,2.0
2023-04-10T23:50:03.865Z,2.3
2023-04-10T23:52:02.771Z,2.5
2023-04-10T23:54:03.029Z,2.4
2023-04-10T23:56:02.859Z,2.6
2023-04-10T23:58:03.697Z,2.3
